Time;durP1;ratioP1;P1;durP2;ratioP2;P2;SDS_P1;SDS_P2;PMS_P1;PMS_P2;Temp;Humidity;BMP_temperature;BMP_pressure;BME280_temperature;BME280_humidity;BME280_pressure;Samples;Min_cycle;Max_cycle;Signal;HPM_P1;HPM_P2
2023/03/30 00:00:17;;;;;;;;;;;;;;;11.21;62.66;97658.22;5103286;28;19935;-57
2023/03/30 00:02:45;;;;;;;;;;;;;;;11.18;62.61;97645.25;5099204;28;20331;-57
2023/03/30 00:05:15;;;;;;;;;;;;;;;11.16;62.81;97644.78;5102619;28;19924;-58
2023/03/30 00:07:43;;;;;;;;;;;;;;;11.15;62.57;97644.00;5113875;27;19928;-56
2023/03/30 00:10:11;;;;;;;;;;;;;;;11.15;62.80;97644.00;5110473;28;19931;-56
2023/03/30 00:12:39;;;;;;;;;;;;;;;11.15;62.63;97654.06;5115744;27;19951;-58
2023/03/30 00:15:11;;;;;;;;;;;;;;;11.13;62.45;97650.84;5097814;28;19947;-57
2023/03/30 00:17:40;;;;;;;;;;;;;;;11.10;62.64;97655.03;5089667;28;19928;-57
2023/03/30 00:20:10;;;;;;;;;;;;;;;11.11;62.74;97653.09;5101822;28;19932;-58
2023/03/30 00:22:38;;;;;;;;;;;;;;;11.04;62.93;97648.16;5085501;28;20422;-57
2023/03/30 00:25:07;;;;;;;;;;;;;;;11.04;63.02;97644.66;5103208;28;19935;-57
2023/03/30 00:27:35;;;;;;;;;;;;;;;11.04;62.61;97641.94;5095860;28;19935;-57
2023/03/30 00:30:05;;;;;;;;;;;;;;;11.06;63.16;97639.69;5092870;28;19963;-61
2023/03/30 00:32:35;;;;;;;;;;;;;;;10.98;63.00;97633.94;5082175;28;19979;-56
2023/03/30 00:35:04;;;;;;;;;;;;;;;10.91;63.33;97639.03;5106424;28;19924;-57
2023/03/30 00:37:32;;;;;;;;;;;;;;;10.91;63.25;97633.59;5102063;28;19928;-57
2023/03/30 00:40:00;;;;;;;;;;;;;;;10.92;63.05;97629.78;5106733;28;19927;-57
2023/03/30 00:42:28;;;;;;;;;;;;;;;10.94;62.99;97630.25;5092145;28;19939;-56
2023/03/30 00:45:06;;;;;;;;;;;;;;;10.88;63.41;97628.81;5102018;28;19924;-57
2023/03/30 00:47:36;;;;;;;;;;;;;;;10.89;62.99;97627.69;5105125;28;19946;-57
2023/03/30 00:50:06;;;;;;;;;;;;;;;10.90;63.03;97621.13;5085293;28;19927;-57
2023/03/30 00:52:36;;;;;;;;;;;;;;;10.88;63.22;97619.88;5091322;28;19932;-57
2023/03/30 00:55:04;;;;;;;;;;;;;;;10.88;63.17;97614.44;5084738;28;19923;-57
2023/03/30 00:57:33;;;;;;;;;;;;;;;10.84;63.13;97616.19;5105106;28;19939;-57
2023/03/30 01:00:01;;;;;;;;;;;;;;;10.80;63.17;97616.00;5094167;27;19931;-57
2023/03/30 01:02:30;;;;;;;;;;;;;;;10.81;63.17;97612.16;5102674;28;20028;-58
2023/03/30 01:04:59;;;;;;;;;;;;;;;10.83;63.28;97611.88;5105702;28;19932;-56
2023/03/30 01:07:28;;;;;;;;;;;;;;;10.82;63.11;97602.91;5097777;28;19931;-57
2023/03/30 01:09:56;;;;;;;;;;;;;;;10.81;63.19;97601.31;5107024;28;19928;-57
2023/03/30 01:12:27;;;;;;;;;;;;;;;10.84;63.50;97599.88;5084583;28;19934;-57
2023/03/30 01:14:54;;;;;;;;;;;;;;;10.84;63.32;97586.28;5103994;27;19924;-57
2023/03/30 01:17:25;;;;;;;;;;;;;;;10.81;63.71;97587.72;5099079;27;19928;-57
2023/03/30 01:20:11;;;;;;;;;;;;;;;10.77;63.76;97575.91;5106999;28;20262;-58
2023/03/30 01:22:41;;;;;;;;;;;;;;;10.78;63.79;97577.50;5102716;28;19928;-57
2023/03/30 01:25:17;;;;;;;;;;;;;;;10.71;63.78;97579.91;5089564;28;19970;-56
2023/03/30 01:27:54;;;;;;;;;;;;;;;10.70;63.74;97578.28;5106643;28;20448;-57
2023/03/30 01:30:30;;;;;;;;;;;;;;;10.68;63.96;97575.09;5095382;28;20546;-57
2023/03/30 01:33:02;;;;;;;;;;;;;;;10.65;63.69;97573.84;5090194;28;19928;-57
2023/03/30 01:35:50;;;;;;;;;;;;;;;10.61;63.72;97563.94;5090538;28;19932;-60
2023/03/30 01:38:38;;;;;;;;;;;;;;;10.59;64.24;97560.72;5092737;28;19972;-56
2023/03/30 01:41:10;;;;;;;;;;;;;;;10.58;64.56;97561.84;5055214;28;20406;-57
2023/03/30 01:43:40;;;;;;;;;;;;;;;10.57;64.09;97552.09;5101688;28;19959;-56
2023/03/30 01:46:10;;;;;;;;;;;;;;;10.54;64.14;97548.09;5085338;28;19955;-57
2023/03/30 01:48:44;;;;;;;;;;;;;;;10.61;63.81;97531.34;5106482;28;19924;-57
2023/03/30 01:51:13;;;;;;;;;;;;;;;10.63;63.94;97529.09;5104699;28;20324;-57
2023/03/30 01:53:42;;;;;;;;;;;;;;;10.63;64.03;97526.38;5089961;28;19935;-58
2023/03/30 01:56:12;;;;;;;;;;;;;;;10.63;64.16;97520.94;5090774;28;19932;-57
2023/03/30 01:58:41;;;;;;;;;;;;;;;10.67;63.83;97519.19;5100669;28;19932;-58
2023/03/30 02:01:09;;;;;;;;;;;;;;;10.69;64.04;97506.84;5078183;28;20353;-57
2023/03/30 02:03:37;;;;;;;;;;;;;;;10.82;63.60;97502.38;5096955;28;19924;-56
2023/03/30 02:06:15;;;;;;;;;;;;;;;10.72;63.58;97506.22;5088240;28;19928;-58
2023/03/30 02:08:58;;;;;;;;;;;;;;;10.72;63.75;97492.63;5106268;28;19988;-57
2023/03/30 02:11:27;;;;;;;;;;;;;;;10.69;63.90;97508.78;5102213;28;19924;-58
2023/03/30 02:13:57;;;;;;;;;;;;;;;10.70;63.74;97510.38;5087900;28;20274;-57
2023/03/30 02:16:28;;;;;;;;;;;;;;;10.71;63.81;97503.84;5083259;28;20003;-60
2023/03/30 02:18:56;;;;;;;;;;;;;;;10.80;63.37;97518.19;5088165;28;19973;-57
2023/03/30 02:21:24;;;;;;;;;;;;;;;10.86;63.29;97506.03;5081587;27;19924;-60
2023/03/30 02:23:52;;;;;;;;;;;;;;;10.82;63.13;97515.16;5105250;28;19928;-57
2023/03/30 02:26:20;;;;;;;;;;;;;;;10.80;63.27;97518.19;5111616;27;19938;-61
2023/03/30 02:28:49;;;;;;;;;;;;;;;10.72;63.56;97511.66;5101540;27;19938;-57
2023/03/30 02:31:17;;;;;;;;;;;;;;;10.70;63.57;97513.09;5088612;28;19924;-57
2023/03/30 02:33:48;;;;;;;;;;;;;;;10.77;63.15;97509.91;5094205;28;19924;-57
2023/03/30 02:36:23;;;;;;;;;;;;;;;10.68;63.55;97515.34;5107122;28;19928;-57
2023/03/30 02:39:03;;;;;;;;;;;;;;;10.68;63.75;97516.13;5110818;28;19931;-57
2023/03/30 02:41:36;;;;;;;;;;;;;;;10.70;63.81;97518.53;5089517;28;19927;-57
2023/03/30 02:44:07;;;;;;;;;;;;;;;10.73;63.91;97515.16;5111275;28;19998;-58
2023/03/30 02:46:39;;;;;;;;;;;;;;;10.70;63.78;97515.81;5105401;28;19924;-58
2023/03/30 02:49:11;;;;;;;;;;;;;;;10.68;63.81;97509.91;5104742;28;19950;-57
2023/03/30 02:51:45;;;;;;;;;;;;;;;10.61;64.71;97512.31;5110904;28;19924;-56
2023/03/30 02:54:18;;;;;;;;;;;;;;;10.59;64.52;97511.81;5110711;28;19924;-57
2023/03/30 02:57:16;;;;;;;;;;;;;;;10.58;64.67;97504.78;5037899;28;20525;-57
2023/03/30 02:59:47;;;;;;;;;;;;;;;10.59;64.77;97507.19;5111510;28;19924;-57
2023/03/30 03:02:16;;;;;;;;;;;;;;;10.57;65.27;97508.63;5091427;27;19935;-57
2023/03/30 03:04:48;;;;;;;;;;;;;;;10.59;64.77;97518.03;5092925;28;19993;-62
2023/03/30 03:07:26;;;;;;;;;;;;;;;10.58;65.36;97515.66;5110558;28;19936;-56
2023/03/30 03:09:54;;;;;;;;;;;;;;;10.61;64.98;97520.47;5108511;28;19924;-57
2023/03/30 03:12:23;;;;;;;;;;;;;;;10.61;64.65;97517.75;5093161;27;19963;-58
2023/03/30 03:14:52;;;;;;;;;;;;;;;10.64;64.54;97520.59;5095132;28;19928;-57
2023/03/30 03:17:21;;;;;;;;;;;;;;;10.63;65.13;97521.72;5101980;28;19931;-57
2023/03/30 03:19:49;;;;;;;;;;;;;;;10.59;65.78;97531.63;5111826;27;19923;-60
2023/03/30 03:22:19;;;;;;;;;;;;;;;10.60;65.69;97516.13;5091918;28;19931;-56
2023/03/30 03:24:47;;;;;;;;;;;;;;;10.62;65.90;97514.69;5106959;28;19930;-57
2023/03/30 03:27:15;;;;;;;;;;;;;;;10.61;65.80;97515.81;5097892;28;19928;-57
2023/03/30 03:30:01;;;;;;;;;;;;;;;10.63;65.70;97515.50;5104580;27;20384;-57
2023/03/30 03:32:35;;;;;;;;;;;;;;;10.62;65.78;97520.13;5098821;27;20034;-57
2023/03/30 03:35:03;;;;;;;;;;;;;;;10.70;65.62;97513.09;5087643;28;20292;-58
2023/03/30 03:37:30;;;;;;;;;;;;;;;10.83;65.57;97503.97;5092674;28;19992;-56
2023/03/30 03:39:58;;;;;;;;;;;;;;;10.93;65.32;97505.56;5092146;28;19924;-57
2023/03/30 03:42:27;;;;;;;;;;;;;;;10.95;65.46;97514.97;5098223;27;19924;-57
2023/03/30 03:45:10;;;;;;;;;;;;;;;10.94;65.49;97528.88;5084623;27;20415;-57
2023/03/30 03:47:50;;;;;;;;;;;;;;;11.05;65.02;97530.13;5087654;28;19958;-58
2023/03/30 03:50:24;;;;;;;;;;;;;;;11.02;65.25;97528.06;5098664;28;19938;-56
2023/03/30 03:52:52;;;;;;;;;;;;;;;11.21;65.08;97519.53;5082066;28;20035;-57
2023/03/30 03:55:20;;;;;;;;;;;;;;;11.14;65.07;97517.34;5118384;27;19935;-57
2023/03/30 03:57:48;;;;;;;;;;;;;;;11.09;65.33;97525.66;5109771;28;19938;-56
2023/03/30 04:00:18;;;;;;;;;;;;;;;11.10;65.45;97521.03;5087489;28;19953;-57
2023/03/30 04:02:51;;;;;;;;;;;;;;;11.19;65.52;97514.44;5103150;27;19945;-58
2023/03/30 04:05:18;;;;;;;;;;;;;;;11.32;65.34;97522.72;5087262;28;20353;-57
2023/03/30 04:07:52;;;;;;;;;;;;;;;11.22;66.07;97518.41;5106440;28;19974;-59
2023/03/30 04:10:20;;;;;;;;;;;;;;;11.49;65.76;97511.75;5088458;28;19934;-57
2023/03/30 04:13:03;;;;;;;;;;;;;;;11.41;65.96;97509.88;5089597;28;19950;-60
2023/03/30 04:15:51;;;;;;;;;;;;;;;11.37;66.22;97515.16;5100347;27;19957;-57
2023/03/30 04:18:40;;;;;;;;;;;;;;;11.27;66.54;97521.75;5107315;28;20030;-57
2023/03/30 04:21:34;;;;;;;;;;;;;;;11.30;67.15;97512.16;5081388;27;19958;-57
2023/03/30 04:24:34;;;;;;;;;;;;;;;11.31;67.57;97508.31;5106575;27;20027;-57
2023/03/30 04:27:27;;;;;;;;;;;;;;;11.59;67.48;97513.31;5102330;28;19924;-57
2023/03/30 04:30:24;;;;;;;;;;;;;;;11.50;68.21;97508.72;5088544;28;19924;-56
2023/03/30 04:33:16;;;;;;;;;;;;;;;11.68;68.19;97508.63;5107416;28;20019;-58
2023/03/30 04:36:03;;;;;;;;;;;;;;;11.65;68.22;97509.28;5107413;28;19939;-57
2023/03/30 04:38:57;;;;;;;;;;;;;;;11.75;68.81;97506.19;5103048;28;19945;-58
2023/03/30 04:41:57;;;;;;;;;;;;;;;11.95;68.76;97513.63;5078535;28;19924;-57
2023/03/30 04:44:37;;;;;;;;;;;;;;;12.03;68.59;97518.22;5085080;28;19963;-59
2023/03/30 04:47:38;;;;;;;;;;;;;;;12.04;68.98;97522.56;5089462;27;19951;-59
2023/03/30 04:50:25;;;;;;;;;;;;;;;12.02;70.37;97513.91;5105518;28;19923;-59
2023/03/30 04:53:11;;;;;;;;;;;;;;;11.95;71.03;97513.63;5103781;28;20330;-57
2023/03/30 04:56:08;;;;;;;;;;;;;;;12.05;71.70;97502.38;5109596;28;20022;-57
2023/03/30 04:58:56;;;;;;;;;;;;;;;12.09;71.60;97504.41;5103045;28;20285;-58
2023/03/30 05:01:44;;;;;;;;;;;;;;;12.24;71.39;97515.50;5068587;28;19928;-57
2023/03/30 05:04:29;;;;;;;;;;;;;;;12.21;71.87;97515.41;5101867;28;19924;-57
2023/03/30 05:07:16;;;;;;;;;;;;;;;12.05;72.42;97528.78;5080037;28;19923;-57
2023/03/30 05:09:51;;;;;;;;;;;;;;;12.13;72.57;97529.84;5100940;28;20285;-57
2023/03/30 05:12:39;;;;;;;;;;;;;;;12.05;72.99;97518.69;5087152;28;19928;-58
2023/03/30 05:15:27;;;;;;;;;;;;;;;12.00;72.96;97529.00;5099709;28;19931;-57
2023/03/30 05:18:13;;;;;;;;;;;;;;;11.97;73.84;97529.63;5105715;28;19938;-57
2023/03/30 05:21:17;;;;;;;;;;;;;;;12.00;73.84;97521.63;5022132;28;19933;-57
2023/03/30 05:24:04;;;;;;;;;;;;;;;12.05;74.37;97523.34;5087510;28;19965;-57
2023/03/30 05:26:55;;;;;;;;;;;;;;;12.01;74.37;97533.28;5055977;28;19925;-57
2023/03/30 05:29:38;;;;;;;;;;;;;;;11.93;74.60;97537.69;5061823;28;19924;-57
2023/03/30 05:32:23;;;;;;;;;;;;;;;11.91;75.06;97537.19;5053616;28;19924;-59
2023/03/30 05:34:51;;;;;;;;;;;;;;;11.91;75.48;97537.19;5085074;28;19951;-60
2023/03/30 05:37:37;;;;;;;;;;;;;;;11.91;75.90;97544.56;5079577;28;20055;-57
2023/03/30 05:40:25;;;;;;;;;;;;;;;11.95;76.34;97535.41;5066778;28;19977;-58
2023/03/30 05:43:02;;;;;;;;;;;;;;;11.86;77.50;97529.22;5082291;28;19925;-57
2023/03/30 05:45:44;;;;;;;;;;;;;;;11.96;77.21;97517.94;5085047;28;19963;-58
2023/03/30 05:48:30;;;;;;;;;;;;;;;11.92;77.31;97514.28;5091358;28;19934;-57
2023/03/30 05:51:17;;;;;;;;;;;;;;;11.88;78.38;97499.75;5090233;28;20006;-57
2023/03/30 05:54:04;;;;;;;;;;;;;;;11.88;78.58;97498.94;5090693;28;19939;-57
2023/03/30 05:56:51;;;;;;;;;;;;;;;11.81;78.96;97502.16;5091495;28;19931;-61
2023/03/30 05:59:37;;;;;;;;;;;;;;;11.79;79.29;97498.97;5074098;28;19928;-58
2023/03/30 06:02:27;;;;;;;;;;;;;;;11.78;79.19;97492.72;5089526;28;19928;-57
2023/03/30 06:05:01;;;;;;;;;;;;;;;11.78;79.79;97470.16;5076235;28;19977;-58
2023/03/30 06:07:29;;;;;;;;;;;;;;;11.76;80.49;97453.34;5073942;28;19928;-57
2023/03/30 06:10:00;;;;;;;;;;;;;;;11.78;80.42;97453.84;5093347;28;20270;-57
2023/03/30 06:12:30;;;;;;;;;;;;;;;11.85;80.02;97445.19;5068482;28;19962;-57
2023/03/30 06:15:01;;;;;;;;;;;;;;;11.82;79.85;97435.72;5075925;28;19924;-57
2023/03/30 06:17:50;;;;;;;;;;;;;;;11.77;80.80;97427.72;5092348;28;20040;-60
2023/03/30 06:20:20;;;;;;;;;;;;;;;11.80;81.01;97424.34;5092836;28;19989;-57
2023/03/30 06:22:50;;;;;;;;;;;;;;;11.75;81.41;97433.50;5086087;28;19925;-60
2023/03/30 06:25:22;;;;;;;;;;;;;;;11.93;79.96;97436.97;5075222;28;20434;-57
2023/03/30 06:27:52;;;;;;;;;;;;;;;11.72;81.33;97436.91;5089205;28;20274;-57
2023/03/30 06:30:20;;;;;;;;;;;;;;;11.77;80.64;97444.88;5061829;28;19928;-57
2023/03/30 06:32:53;;;;;;;;;;;;;;;11.82;80.93;97459.44;5072976;28;20382;-59
2023/03/30 06:35:28;;;;;;;;;;;;;;;11.86;80.47;97439.38;5068641;28;19924;-57
2023/03/30 06:37:59;;;;;;;;;;;;;;;11.84;80.98;97458.00;5075222;28;19928;-57
2023/03/30 06:40:27;;;;;;;;;;;;;;;11.88;80.46;97463.56;5071829;28;19924;-57
2023/03/30 06:42:57;;;;;;;;;;;;;;;11.75;82.32;97458.00;5078072;28;19928;-60
2023/03/30 06:45:37;;;;;;;;;;;;;;;11.75;82.89;97443.59;5067549;28;19974;-57
2023/03/30 06:48:06;;;;;;;;;;;;;;;11.80;82.83;97440.69;5092087;28;20407;-57
2023/03/30 06:50:39;;;;;;;;;;;;;;;11.67;83.85;97420.78;5089378;28;20019;-57
2023/03/30 06:53:23;;;;;;;;;;;;;;;11.70;84.49;97402.97;5066514;28;19952;-57
2023/03/30 06:55:51;;;;;;;;;;;;;;;11.75;83.94;97419.91;5088465;28;19932;-64
2023/03/30 06:58:22;;;;;;;;;;;;;;;11.74;83.61;97433.84;5089212;28;19924;-57
2023/03/30 07:00:50;;;;;;;;;;;;;;;11.72;84.11;97450.50;5067797;28;19931;-58
2023/03/30 07:03:40;;;;;;;;;;;;;;;11.70;84.16;97441.88;5062384;28;19939;-57
2023/03/30 07:06:19;;;;;;;;;;;;;;;11.75;83.90;97451.75;5071256;28;19925;-58
2023/03/30 07:08:48;;;;;;;;;;;;;;;11.72;84.04;97449.72;5071034;28;19932;-57
2023/03/30 07:11:22;;;;;;;;;;;;;;;11.72;84.15;97438.84;5071585;28;20285;-57
2023/03/30 07:13:55;;;;;;;;;;;;;;;11.79;84.04;97437.16;5070909;28;20385;-57
2023/03/30 07:16:22;;;;;;;;;;;;;;;11.78;84.11;97434.78;5070355;28;19993;-57
2023/03/30 07:18:50;;;;;;;;;;;;;;;11.87;84.13;97427.38;5071886;28;19932;-58
2023/03/30 07:21:19;;;;;;;;;;;;;;;11.70;84.85;97435.63;5092959;28;19924;-57
2023/03/30 07:23:47;;;;;;;;;;;;;;;11.69;84.91;97439.47;5108930;27;20395;-57
2023/03/30 07:26:26;;;;;;;;;;;;;;;11.69;84.96;97431.31;5094164;28;19967;-57
2023/03/30 07:29:00;;;;;;;;;;;;;;;11.72;84.55;97442.34;5111289;28;19924;-58
2023/03/30 07:31:29;;;;;;;;;;;;;;;11.67;84.77;97452.63;5087273;28;19978;-57
2023/03/30 07:33:57;;;;;;;;;;;;;;;11.69;84.90;97472.13;5085951;28;19967;-57
2023/03/30 07:36:29;;;;;;;;;;;;;;;11.74;84.69;97478.19;5092207;28;19927;-57
2023/03/30 07:38:58;;;;;;;;;;;;;;;11.72;85.29;97509.59;5091408;28;19923;-57
2023/03/30 07:41:26;;;;;;;;;;;;;;;11.76;85.27;97524.91;5110900;28;19924;-57
2023/03/30 07:43:57;;;;;;;;;;;;;;;11.83;85.07;97540.78;5091842;28;19967;-57
2023/03/30 07:46:27;;;;;;;;;;;;;;;11.73;85.64;97552.78;5094480;28;19925;-57
2023/03/30 07:48:55;;;;;;;;;;;;;;;11.78;85.66;97562.69;5097128;27;19928;-57
2023/03/30 07:51:24;;;;;;;;;;;;;;;11.78;86.35;97568.16;5097300;27;19928;-57
2023/03/30 07:54:01;;;;;;;;;;;;;;;11.72;87.08;97572.19;5091033;28;19947;-57
2023/03/30 07:56:41;;;;;;;;;;;;;;;11.57;87.90;97557.19;5093030;28;19966;-57
2023/03/30 07:59:11;;;;;;;;;;;;;;;11.66;88.45;97562.56;5081003;28;19957;-58
2023/03/30 08:01:42;;;;;;;;;;;;;;;11.63;88.28;97566.75;5089443;28;19923;-57
2023/03/30 08:04:24;;;;;;;;;;;;;;;11.78;87.40;97557.25;5104567;28;19924;-58
2023/03/30 08:06:54;;;;;;;;;;;;;;;11.63;88.50;97550.44;5091892;28;19924;-59
2023/03/30 08:09:23;;;;;;;;;;;;;;;11.58;89.05;97556.06;5085322;28;20269;-58
2023/03/30 08:11:51;;;;;;;;;;;;;;;11.53;89.63;97534.47;5105507;28;20388;-58
2023/03/30 08:14:19;;;;;;;;;;;;;;;11.53;89.92;97537.97;5104567;28;19931;-58
2023/03/30 08:16:48;;;;;;;;;;;;;;;11.59;90.13;97537.81;5107001;28;19923;-58
2023/03/30 08:19:16;;;;;;;;;;;;;;;11.55;90.14;97534.94;5104018;28;19959;-57
2023/03/30 08:21:44;;;;;;;;;;;;;;;11.49;90.44;97537.03;5106456;28;19932;-57
2023/03/30 08:24:12;;;;;;;;;;;;;;;11.61;90.34;97541.81;5108720;27;20331;-58
2023/03/30 08:26:40;;;;;;;;;;;;;;;11.72;89.68;97569.47;5103675;28;20300;-57
2023/03/30 08:29:08;;;;;;;;;;;;;;;11.75;89.22;97583.19;5099333;28;19931;-58
2023/03/30 08:31:36;;;;;;;;;;;;;;;11.75;89.37;97598.72;5104503;28;20327;-58
2023/03/30 08:34:07;;;;;;;;;;;;;;;11.65;90.07;97613.47;5108413;28;19944;-57
2023/03/30 08:36:35;;;;;;;;;;;;;;;11.66;90.02;97630.59;5102633;27;19935;-58
2023/03/30 08:39:04;;;;;;;;;;;;;;;11.59;90.69;97625.66;5095093;28;19959;-57
2023/03/30 08:41:42;;;;;;;;;;;;;;;11.54;91.35;97599.44;5092300;28;19935;-58
2023/03/30 08:44:11;;;;;;;;;;;;;;;11.54;91.91;97564.06;5094101;28;19923;-57
2023/03/30 08:46:41;;;;;;;;;;;;;;;11.52;92.49;97598.16;5088167;28;20013;-57
2023/03/30 08:49:13;;;;;;;;;;;;;;;11.67;91.47;97618.63;5095459;28;19931;-57
2023/03/30 08:51:41;;;;;;;;;;;;;;;11.62;91.38;97610.63;5098302;28;19969;-57
2023/03/30 08:54:09;;;;;;;;;;;;;;;11.54;92.14;97606.78;5104423;28;19928;-57
2023/03/30 08:56:38;;;;;;;;;;;;;;;11.52;92.60;97614.50;5090537;28;19923;-61
2023/03/30 08:59:09;;;;;;;;;;;;;;;11.55;93.12;97602.94;5103879;28;20376;-58
2023/03/30 09:01:38;;;;;;;;;;;;;;;11.63;92.49;97593.16;5086793;28;19969;-57
2023/03/30 09:04:09;;;;;;;;;;;;;;;11.58;92.72;97590.63;5117477;27;19932;-57
2023/03/30 09:06:43;;;;;;;;;;;;;;;11.58;93.35;97596.88;5106708;28;20321;-57
2023/03/30 09:09:12;;;;;;;;;;;;;;;11.59;93.20;97598.47;5082327;28;19924;-58
2023/03/30 09:11:40;;;;;;;;;;;;;;;11.59;93.06;97612.06;5108111;28;19927;-57
2023/03/30 09:14:10;;;;;;;;;;;;;;;11.50;92.85;97593.06;5111227;28;20489;-58
2023/03/30 09:16:40;;;;;;;;;;;;;;;11.65;92.80;97586.25;5098709;28;19931;-58
2023/03/30 09:19:08;;;;;;;;;;;;;;;11.82;91.64;97574.53;5103123;28;19964;-59
2023/03/30 09:21:36;;;;;;;;;;;;;;;11.85;91.38;97573.91;5103403;28;20384;-58
2023/03/30 09:24:10;;;;;;;;;;;;;;;11.82;91.59;97579.97;5103686;28;19924;-57
2023/03/30 09:26:40;;;;;;;;;;;;;;;11.83;91.87;97580.81;5100748;27;19976;-58
2023/03/30 09:29:12;;;;;;;;;;;;;;;11.83;92.21;97583.53;5118349;27;19931;-57
2023/03/30 09:31:42;;;;;;;;;;;;;;;11.87;92.32;97577.06;5098278;28;19967;-58
2023/03/30 09:34:13;;;;;;;;;;;;;;;11.84;91.99;97575.03;5107619;28;19931;-57
2023/03/30 09:36:42;;;;;;;;;;;;;;;11.86;92.54;97580.94;5108577;28;19923;-58
2023/03/30 09:39:15;;;;;;;;;;;;;;;11.86;91.78;97571.97;5103806;28;19938;-57
2023/03/30 09:42:04;;;;;;;;;;;;;;;11.84;91.99;97587.84;5108155;28;20432;-57
2023/03/30 09:44:33;;;;;;;;;;;;;;;11.85;91.74;97594.88;5080379;28;20023;-59
2023/03/30 09:47:01;;;;;;;;;;;;;;;11.79;92.42;97596.94;5080155;28;19931;-57
2023/03/30 09:49:32;;;;;;;;;;;;;;;11.99;91.28;97612.59;5110740;28;19932;-59
2023/03/30 09:52:02;;;;;;;;;;;;;;;11.95;91.83;97617.09;5107969;28;19959;-57
2023/03/30 09:54:38;;;;;;;;;;;;;;;12.04;91.73;97630.66;5108681;28;19928;-58
2023/03/30 09:57:06;;;;;;;;;;;;;;;12.16;90.43;97627.25;5105315;28;20032;-57
2023/03/30 09:59:34;;;;;;;;;;;;;;;12.14;90.79;97629.47;5111776;28;19924;-58
2023/03/30 10:02:19;;;;;;;;;;;;;;;12.10;91.30;97612.22;5100361;28;19932;-59
2023/03/30 10:04:57;;;;;;;;;;;;;;;12.05;91.67;97567.72;5103603;28;19931;-58
2023/03/30 10:07:25;;;;;;;;;;;;;;;12.24;91.01;97531.84;5104329;28;20036;-57
2023/03/30 10:09:57;;;;;;;;;;;;;;;12.26;90.55;97512.47;5114816;28;20288;-58
2023/03/30 10:12:25;;;;;;;;;;;;;;;12.36;90.23;97522.97;5104903;28;20371;-59
2023/03/30 10:14:53;;;;;;;;;;;;;;;12.39;90.59;97546.03;5107119;28;19927;-57
2023/03/30 10:17:23;;;;;;;;;;;;;;;12.50;88.88;97548.00;5100727;28;19932;-57
2023/03/30 10:19:51;;;;;;;;;;;;;;;12.42;88.76;97508.03;5103822;28;19924;-56
2023/03/30 10:22:21;;;;;;;;;;;;;;;12.55;87.68;97564.16;5103835;28;19923;-57
2023/03/30 10:24:50;;;;;;;;;;;;;;;12.46;88.33;97554.44;5104136;28;19923;-57
2023/03/30 10:27:20;;;;;;;;;;;;;;;12.52;88.61;97555.88;5110220;28;19935;-56
2023/03/30 10:29:50;;;;;;;;;;;;;;;12.50;88.72;97545.28;5110275;28;20450;-56
2023/03/30 10:32:19;;;;;;;;;;;;;;;12.57;88.67;97539.31;5086461;28;19927;-57
2023/03/30 10:34:48;;;;;;;;;;;;;;;12.62;89.05;97528.19;5105272;28;19943;-57
2023/03/30 10:37:18;;;;;;;;;;;;;;;12.81;88.04;97523.06;5107959;28;19928;-58
2023/03/30 10:39:46;;;;;;;;;;;;;;;12.89;87.88;97529.59;5108576;28;19943;-57
2023/03/30 10:42:16;;;;;;;;;;;;;;;12.99;88.27;97518.22;5105118;28;19923;-57
2023/03/30 10:44:47;;;;;;;;;;;;;;;13.19;86.85;97523.97;5108256;28;19924;-57
2023/03/30 10:47:30;;;;;;;;;;;;;;;13.10;87.36;97513.16;5104616;28;20369;-62
2023/03/30 10:50:00;;;;;;;;;;;;;;;13.35;86.46;97514.03;5089802;28;19930;-57
2023/03/30 10:52:29;;;;;;;;;;;;;;;13.39;85.92;97514.16;5109557;28;20344;-57
2023/03/30 10:54:59;;;;;;;;;;;;;;;13.30;85.56;97516.97;5107896;28;19924;-57
2023/03/30 10:57:28;;;;;;;;;;;;;;;13.32;85.48;97506.53;5110483;27;20388;-57
2023/03/30 11:00:00;;;;;;;;;;;;;;;13.43;84.37;97515.09;5106388;28;19931;-57
2023/03/30 11:02:43;;;;;;;;;;;;;;;13.43;84.00;97526.78;5109376;27;20392;-56
2023/03/30 11:05:14;;;;;;;;;;;;;;;13.50;83.08;97529.75;5096050;27;20375;-58
2023/03/30 11:07:43;;;;;;;;;;;;;;;13.46;82.73;97528.81;5109918;28;20351;-57
2023/03/30 11:10:13;;;;;;;;;;;;;;;13.65;81.39;97533.75;5114662;27;19930;-57
2023/03/30 11:12:41;;;;;;;;;;;;;;;13.71;81.68;97532.38;5095211;28;19959;-57
2023/03/30 11:15:13;;;;;;;;;;;;;;;13.91;80.92;97527.94;5104106;28;19928;-57
2023/03/30 11:17:44;;;;;;;;;;;;;;;13.91;81.10;97527.94;5107732;28;19928;-57
2023/03/30 11:20:17;;;;;;;;;;;;;;;14.00;80.45;97523.13;5109837;28;19924;-58
2023/03/30 11:22:48;;;;;;;;;;;;;;;13.93;80.53;97531.13;5105147;28;19953;-57
2023/03/30 11:25:17;;;;;;;;;;;;;;;13.77;80.07;97514.63;5107070;27;19928;-58
2023/03/30 11:27:48;;;;;;;;;;;;;;;13.93;80.37;97517.47;5118525;28;20339;-57
2023/03/30 11:30:18;;;;;;;;;;;;;;;14.16;79.60;97513.09;5102865;28;19963;-59
2023/03/30 11:32:47;;;;;;;;;;;;;;;14.16;78.50;97539.63;5109811;28;19927;-61
2023/03/30 11:35:17;;;;;;;;;;;;;;;14.11;78.43;97535.22;5092059;28;19935;-58
2023/03/30 11:37:46;;;;;;;;;;;;;;;14.07;75.62;97537.03;5112302;28;19934;-57
2023/03/30 11:40:16;;;;;;;;;;;;;;;13.87;76.76;97546.16;5113572;28;19928;-57
2023/03/30 11:42:44;;;;;;;;;;;;;;;13.79;75.83;97549.78;5107297;28;19927;-62
2023/03/30 11:45:28;;;;;;;;;;;;;;;13.77;75.62;97549.34;5098720;28;20385;-57
2023/03/30 11:48:01;;;;;;;;;;;;;;;13.74;74.51;97544.53;5106424;28;19924;-57
2023/03/30 11:50:32;;;;;;;;;;;;;;;13.96;76.07;97544.09;5113666;27;19924;-57
2023/03/30 11:53:04;;;;;;;;;;;;;;;14.16;74.77;97548.63;5094869;28;19935;-57
2023/03/30 11:55:47;;;;;;;;;;;;;;;14.28;74.41;97538.84;5103031;27;19931;-57
2023/03/30 11:58:17;;;;;;;;;;;;;;;14.14;74.18;97536.47;5091233;28;19924;-58
2023/03/30 12:00:51;;;;;;;;;;;;;;;14.06;73.62;97532.72;5100496;28;19928;-58
2023/03/30 12:03:22;;;;;;;;;;;;;;;13.79;74.52;97536.13;5110915;27;19923;-57
2023/03/30 12:05:50;;;;;;;;;;;;;;;13.88;75.61;97531.34;5100688;28;19931;-57
2023/03/30 12:08:25;;;;;;;;;;;;;;;13.91;75.27;97525.22;5093545;28;19927;-57
2023/03/30 12:10:56;;;;;;;;;;;;;;;13.99;75.65;97532.47;5111156;28;19959;-57
2023/03/30 12:13:26;;;;;;;;;;;;;;;14.15;75.80;97535.31;5108939;27;19924;-57
2023/03/30 12:15:57;;;;;;;;;;;;;;;14.29;74.07;97530.28;5102433;27;19924;-57
2023/03/30 12:18:29;;;;;;;;;;;;;;;14.18;74.10;97536.56;5106804;28;19930;-57
2023/03/30 12:21:00;;;;;;;;;;;;;;;14.36;73.56;97524.22;5105665;28;20375;-58
2023/03/30 12:23:31;;;;;;;;;;;;;;;14.40;73.57;97536.06;5110034;28;19976;-58
2023/03/30 12:26:03;;;;;;;;;;;;;;;14.39;72.77;97529.03;5111825;27;19924;-57
2023/03/30 12:28:39;;;;;;;;;;;;;;;14.56;71.54;97531.50;5096560;28;19935;-57
2023/03/30 12:31:39;;;;;;;;;;;;;;;14.93;69.93;97536.84;5100704;28;19933;-57
2023/03/30 12:34:09;;;;;;;;;;;;;;;15.04;68.72;97532.47;5104583;28;19928;-58
2023/03/30 12:36:38;;;;;;;;;;;;;;;15.13;67.69;97530.38;5111388;28;19931;-58
2023/03/30 12:39:09;;;;;;;;;;;;;;;15.03;66.86;97525.41;5109983;28;19937;-57
2023/03/30 12:41:41;;;;;;;;;;;;;;;15.18;65.79;97519.16;5110885;28;19928;-57
2023/03/30 12:44:14;;;;;;;;;;;;;;;15.52;65.45;97518.84;5104767;28;20499;-57
2023/03/30 12:46:44;;;;;;;;;;;;;;;15.56;62.64;97512.31;5101091;28;19924;-57
2023/03/30 12:49:17;;;;;;;;;;;;;;;15.66;63.21;97508.28;5100696;28;19932;-57
2023/03/30 12:51:54;;;;;;;;;;;;;;;15.76;62.30;97498.69;5085726;28;19935;-58
2023/03/30 12:54:37;;;;;;;;;;;;;;;15.93;61.28;97496.41;5112028;27;19942;-57
2023/03/30 12:57:08;;;;;;;;;;;;;;;15.91;61.78;97492.41;5093994;28;19963;-57
2023/03/30 12:59:46;;;;;;;;;;;;;;;15.66;60.13;97492.63;5106629;28;19935;-57
2023/03/30 13:02:30;;;;;;;;;;;;;;;15.65;61.06;97496.50;5099748;28;19931;-57
2023/03/30 13:04:59;;;;;;;;;;;;;;;15.39;59.33;97507.97;5114692;27;20430;-57
2023/03/30 13:07:28;;;;;;;;;;;;;;;15.33;59.89;97501.16;5107685;28;19966;-57
2023/03/30 13:09:56;;;;;;;;;;;;;;;15.30;59.91;97506.56;5106660;27;19927;-57
2023/03/30 13:12:32;;;;;;;;;;;;;;;15.33;60.26;97501.16;5104582;28;19924;-58
2023/03/30 13:15:02;;;;;;;;;;;;;;;15.33;58.72;97501.16;5100943;27;19932;-57
2023/03/30 13:17:45;;;;;;;;;;;;;;;15.37;58.52;97496.56;5106442;28;19935;-57
2023/03/30 13:20:17;;;;;;;;;;;;;;;15.21;58.24;97493.03;5111563;28;20292;-58